Grande Italia — IBTF — position and weather

sailwx.info

Track history (hours):
 
Tides and Currents Weather Stations Pressure Air Temp Water Temp Dewpoint Dewpoint Depression Visibility Wind Speed Wind Dir Waves Ship Positions

Grande Italia

Last reported at 2014-Jul-30 02:34 UTC. Time now 2014-Jul-30 03:04 UTC.
Position N 40°35' E 013°50'.

Length 177 m; draft 7.7 m.

Type: Cargo ship. MMSI: 247039300.

Date/timePositionNaut miles runAvg speedWind from/ knotsBaromVisibWave heightAir tempDewpointWater temp
2014-Jul-30 02:34N 40°35' E 013°50'1515.4
2014-Jul-30 01:33N 40°30' E 014°09'1615.4
2014-Jul-30 00:33N 40°33' E 014°29'11 1.1
2014-Jul-29 15:03N 40°35' E 014°43'915.3
2014-Jul-29 14:28N 40°26' E 014°43'1415.2
2014-Jul-29 13:31N 40°12' E 014°45'45413.0
2014-Jul-28 02:33N 36°25' E 023°05'1313.3
2014-Jul-28 01:33N 36°31' E 023°20'1515.4
2014-Jul-28 00:33N 36°44' E 023°31'1515.0
2014-Jul-27 23:33N 36°55' E 023°42'1515.3
2014-Jul-27 22:33N 37°07' E 023°55'1715.3
2014-Jul-27 21:27N 37°20' E 024°09'1515.2
2014-Jul-27 20:26N 37°31' E 024°22'1314.4
2014-Jul-27 19:33N 37°43' E 024°29'1514.8
2014-Jul-27 18:33N 37°57' E 024°35'1614.9
2014-Jul-27 17:28N 38°11' E 024°44'3515.5
2014-Jul-27 15:12N 38°43' E 025°02'1014.9
2014-Jul-27 14:32N 38°52' E 025°08'3215.3
2014-Jul-27 12:26N 39°20' E 025°28'1415.2
2014-Jul-27 11:29N 39°33' E 025°36'1515.2
2014-Jul-27 10:29N 39°47' E 025°44'1515.6
2014-Jul-27 09:33N 39°59' E 025°56'4513.3
2014-Jul-27 06:10N 40°25' E 026°43'913.8
2014-Jul-27 05:32N 40°29' E 026°54'126 2.5
2014-Jul-25 03:15N 40°44' E 029°39'911.3
2014-Jul-25 02:30N 40°45' E 029°27'910.0
2014-Jul-25 01:33N 40°43' E 029°15'1514.7
2014-Jul-25 00:33N 40°40' E 028°56'15 7.5
2014-Jul-24 22:32N 40°26' E 029°02'15 0.8
2014-Jul-24 03:33N 40°31' E 028°45'1313.6
2014-Jul-24 02:33N 40°41' E 028°58'1413.9
2014-Jul-24 01:33N 40°43' E 029°16'1211.8
2014-Jul-24 00:32N 40°45' E 029°32'5 0.3
2014-Jul-23 09:03N 40°45' E 029°38'610.1
2014-Jul-23 08:29N 40°45' E 029°30'9 9.3
2014-Jul-23 07:33N 40°44' E 029°19'1212.1
2014-Jul-23 06:33N 40°44' E 029°03'1817.6
2014-Jul-23 05:32N 40°44' E 028°39'8416.7
2014-Jul-23 00:31N 40°28' E 026°51'1414.1
2014-Jul-22 23:30N 40°19' E 026°36'1313.4
2014-Jul-22 22:32N 40°10' E 026°24'1711.8
2014-Jul-22 21:07N 39°60' E 026°06'915.7
2014-Jul-22 20:33N 39°55' E 025°56'1716.9
2014-Jul-22 19:33N 39°40' E 025°46'2017.7
2014-Jul-22 18:26N 39°23' E 025°34'3317.6
2014-Jul-22 16:33N 38°53' E 025°14'1817.6
2014-Jul-22 15:33N 38°37' E 025°04'1717.4
2014-Jul-22 14:33N 38°22' E 024°55'3817.9
2014-Jul-22 12:25N 37°47' E 024°34'1518.0
2014-Jul-22 11:33N 37°33' E 024°26'1817.6
2014-Jul-22 10:33N 37°19' E 024°12'1616.1
2014-Jul-22 09:32N 37°06' E 023°59'1717.2
2014-Jul-22 08:33N 36°53' E 023°46'2117.3
2014-Jul-22 07:19N 36°36' E 023°30'1317.2
2014-Jul-22 06:32N 36°26' E 023°20'1716.6
2014-Jul-22 05:30N 36°24' E 022°58'2117.6
2014-Jul-22 04:20N 36°21' E 022°33'32717.4
2014-Jul-21 09:33N 37°49' E 015°59'1915.7
2014-Jul-21 08:22N 37°55' E 015°37'1315.2
2014-Jul-21 07:31N 38°08' E 015°35'1414.5
2014-Jul-21 06:33N 38°22' E 015°39'2115.3
2014-Jul-21 05:12N 38°41' E 015°30'2515.3
2014-Jul-21 03:33N 39°04' E 015°18'1515.2
2014-Jul-21 02:33N 39°19' E 015°11'3715.1
2014-Jul-21 00:04N 39°54' E 014°54'815.1
2014-Jul-20 23:33N 40°01' E 014°51'1514.9
2014-Jul-20 22:33N 40°15' E 014°44'1514.9
2014-Jul-20 21:33N 40°30' E 014°44'10 1.4
2014-Jul-20 14:31N 40°40' E 014°45'9 3.1
2014-Jul-20 11:33N 40°35' E 014°35'1717.5
2014-Jul-20 10:34N 40°30' E 014°13'1717.2
2014-Jul-20 09:34N 40°37' E 013°52'1817.7
2014-Jul-20 08:34N 40°49' E 013°35'1817.8
2014-Jul-20 07:33N 40°60' E 013°17'1817.8
2014-Jul-20 06:34N 41°10' E 012°57'  
Track history (hours):
 
Tides and Currents Weather Stations Pressure Air Temp Water Temp Dewpoint Dewpoint Depression Visibility Wind Speed Wind Dir Waves Ship Positions

Grande Italia

Last reported at 2014-Jul-30 02:34 UTC. Time now 2014-Jul-30 03:04 UTC.
Position N 40°35' E 013°50'.

Length 177 m; draft 7.7 m.

Type: Cargo ship. MMSI: 247039300.

Date/timePositionNaut miles runAvg speedWind from/ knotsBaromVisibWave heightAir tempDewpointWater temp
2014-Jul-30 02:34N 40°35' E 013°50'1515.4
2014-Jul-30 01:33N 40°30' E 014°09'1615.4
2014-Jul-30 00:33N 40°33' E 014°29'11 1.1
2014-Jul-29 15:03N 40°35' E 014°43'915.3
2014-Jul-29 14:28N 40°26' E 014°43'1415.2
2014-Jul-29 13:31N 40°12' E 014°45'45413.0
2014-Jul-28 02:33N 36°25' E 023°05'1313.3
2014-Jul-28 01:33N 36°31' E 023°20'1515.4
2014-Jul-28 00:33N 36°44' E 023°31'1515.0
2014-Jul-27 23:33N 36°55' E 023°42'1515.3
2014-Jul-27 22:33N 37°07' E 023°55'1715.3
2014-Jul-27 21:27N 37°20' E 024°09'1515.2
2014-Jul-27 20:26N 37°31' E 024°22'1314.4
2014-Jul-27 19:33N 37°43' E 024°29'1514.8
2014-Jul-27 18:33N 37°57' E 024°35'1614.9
2014-Jul-27 17:28N 38°11' E 024°44'3515.5
2014-Jul-27 15:12N 38°43' E 025°02'1014.9
2014-Jul-27 14:32N 38°52' E 025°08'3215.3
2014-Jul-27 12:26N 39°20' E 025°28'1415.2
2014-Jul-27 11:29N 39°33' E 025°36'1515.2
2014-Jul-27 10:29N 39°47' E 025°44'1515.6
2014-Jul-27 09:33N 39°59' E 025°56'4513.3
2014-Jul-27 06:10N 40°25' E 026°43'913.8
2014-Jul-27 05:32N 40°29' E 026°54'126 2.5
2014-Jul-25 03:15N 40°44' E 029°39'911.3
2014-Jul-25 02:30N 40°45' E 029°27'910.0
2014-Jul-25 01:33N 40°43' E 029°15'1514.7
2014-Jul-25 00:33N 40°40' E 028°56'15 7.5
2014-Jul-24 22:32N 40°26' E 029°02'15 0.8
2014-Jul-24 03:33N 40°31' E 028°45'1313.6
2014-Jul-24 02:33N 40°41' E 028°58'1413.9
2014-Jul-24 01:33N 40°43' E 029°16'1211.8
2014-Jul-24 00:32N 40°45' E 029°32'5 0.3
2014-Jul-23 09:03N 40°45' E 029°38'610.1
2014-Jul-23 08:29N 40°45' E 029°30'9 9.3
2014-Jul-23 07:33N 40°44' E 029°19'1212.1
2014-Jul-23 06:33N 40°44' E 029°03'1817.6
2014-Jul-23 05:32N 40°44' E 028°39'8416.7
2014-Jul-23 00:31N 40°28' E 026°51'1414.1
2014-Jul-22 23:30N 40°19' E 026°36'1313.4
2014-Jul-22 22:32N 40°10' E 026°24'1711.8
2014-Jul-22 21:07N 39°60' E 026°06'915.7
2014-Jul-22 20:33N 39°55' E 025°56'1716.9
2014-Jul-22 19:33N 39°40' E 025°46'2017.7
2014-Jul-22 18:26N 39°23' E 025°34'3317.6
2014-Jul-22 16:33N 38°53' E 025°14'1817.6
2014-Jul-22 15:33N 38°37' E 025°04'1717.4
2014-Jul-22 14:33N 38°22' E 024°55'3817.9
2014-Jul-22 12:25N 37°47' E 024°34'1518.0
2014-Jul-22 11:33N 37°33' E 024°26'1817.6
2014-Jul-22 10:33N 37°19' E 024°12'1616.1
2014-Jul-22 09:32N 37°06' E 023°59'1717.2
2014-Jul-22 08:33N 36°53' E 023°46'2117.3
2014-Jul-22 07:19N 36°36' E 023°30'1317.2
2014-Jul-22 06:32N 36°26' E 023°20'1716.6
2014-Jul-22 05:30N 36°24' E 022°58'2117.6
2014-Jul-22 04:20N 36°21' E 022°33'32717.4
2014-Jul-21 09:33N 37°49' E 015°59'1915.7
2014-Jul-21 08:22N 37°55' E 015°37'1315.2
2014-Jul-21 07:31N 38°08' E 015°35'1414.5
2014-Jul-21 06:33N 38°22' E 015°39'2115.3
2014-Jul-21 05:12N 38°41' E 015°30'2515.3
2014-Jul-21 03:33N 39°04' E 015°18'1515.2
2014-Jul-21 02:33N 39°19' E 015°11'3715.1
2014-Jul-21 00:04N 39°54' E 014°54'815.1
2014-Jul-20 23:33N 40°01' E 014°51'1514.9
2014-Jul-20 22:33N 40°15' E 014°44'1514.9
2014-Jul-20 21:33N 40°30' E 014°44'10 1.4
2014-Jul-20 14:31N 40°40' E 014°45'9 3.1
2014-Jul-20 11:33N 40°35' E 014°35'1717.5
2014-Jul-20 10:34N 40°30' E 014°13'1717.2
2014-Jul-20 09:34N 40°37' E 013°52'1817.7
2014-Jul-20 08:34N 40°49' E 013°35'1817.8
2014-Jul-20 07:33N 40°60' E 013°17'1817.8
2014-Jul-20 06:34N 41°10' E 012°57'  

Dump ship's entire track history